sensor_id;sensor_type;location;lat;lon;timestamp;pressure;altitude;pressure_sealevel;temperature;humidity
74542;BME280;63015;45.378;20.360;2023-01-15T00:00:25;101303.03;;;4.12;85.30
74542;BME280;63015;45.378;20.360;2023-01-15T00:02:25;101316.94;;;4.16;84.93
74542;BME280;63015;45.378;20.360;2023-01-15T00:04:26;101315.13;;;4.13;85.30
74542;BME280;63015;45.378;20.360;2023-01-15T00:06:26;101311.81;;;4.17;85.28
74542;BME280;63015;45.378;20.360;2023-01-15T00:08:27;101307.72;;;4.22;84.77
74542;BME280;63015;45.378;20.360;2023-01-15T00:10:28;101307.50;;;4.16;84.79
74542;BME280;63015;45.378;20.360;2023-01-15T00:12:28;101312.28;;;4.07;85.05
74542;BME280;63015;45.378;20.360;2023-01-15T00:14:29;101309.09;;;4.13;85.20
74542;BME280;63015;45.378;20.360;2023-01-15T00:16:29;101309.09;;;4.13;85.13
74542;BME280;63015;45.378;20.360;2023-01-15T00:18:30;101308.06;;;4.09;85.41
74542;BME280;63015;45.378;20.360;2023-01-15T00:20:31;101312.53;;;4.13;85.10
74542;BME280;63015;45.378;20.360;2023-01-15T00:22:31;101309.09;;;4.13;85.42
74542;BME280;63015;45.378;20.360;2023-01-15T00:24:32;101311.63;;;4.11;85.48
74542;BME280;63015;45.378;20.360;2023-01-15T00:26:51;101315.94;;;4.12;85.51
74542;BME280;63015;45.378;20.360;2023-01-15T00:29:10;101302.09;;;4.10;85.13
74542;BME280;63015;45.378;20.360;2023-01-15T00:31:13;101298.63;;;4.09;85.35
74542;BME280;63015;45.378;20.360;2023-01-15T00:33:13;101305.56;;;4.10;85.39
74542;BME280;63015;45.378;20.360;2023-01-15T00:35:19;101307.31;;;4.11;85.38
74542;BME280;63015;45.378;20.360;2023-01-15T00:37:20;101295.47;;;4.17;85.29
74542;BME280;63015;45.378;20.360;2023-01-15T00:39:21;101289.47;;;4.16;85.28
74542;BME280;63015;45.378;20.360;2023-01-15T00:41:23;101292.84;;;4.15;85.60
74542;BME280;63015;45.378;20.360;2023-01-15T00:43:23;101297.31;;;4.19;85.47
74542;BME280;63015;45.378;20.360;2023-01-15T00:45:24;101300.75;;;4.20;85.61
74542;BME280;63015;45.378;20.360;2023-01-15T00:47:24;101302.56;;;4.22;85.66
74542;BME280;63015;45.378;20.360;2023-01-15T00:49:25;101298.38;;;4.24;85.77
74542;BME280;63015;45.378;20.360;2023-01-15T00:51:25;101296.59;;;4.23;85.72
74542;BME280;63015;45.378;20.360;2023-01-15T00:53:26;101295.84;;;4.26;85.99
74542;BME280;63015;45.378;20.360;2023-01-15T00:55:27;101293.44;;;4.31;85.90
74542;BME280;63015;45.378;20.360;2023-01-15T00:57:27;101288.56;;;4.38;85.70
74542;BME280;63015;45.378;20.360;2023-01-15T00:59:28;101292.25;;;4.45;85.67
74542;BME280;63015;45.378;20.360;2023-01-15T01:01:29;101282.69;;;4.42;85.69
74542;BME280;63015;45.378;20.360;2023-01-15T01:03:30;101288.91;;;4.48;85.56
74542;BME280;63015;45.378;20.360;2023-01-15T01:05:31;101289.88;;;4.50;85.47
74542;BME280;63015;45.378;20.360;2023-01-15T01:07:33;101283.75;;;4.48;85.66
74542;BME280;63015;45.378;20.360;2023-01-15T01:09:33;101284.72;;;4.50;85.73
74542;BME280;63015;45.378;20.360;2023-01-15T01:11:34;101286.44;;;4.51;85.68
74542;BME280;63015;45.378;20.360;2023-01-15T01:13:37;101282.91;;;4.47;85.89
74542;BME280;63015;45.378;20.360;2023-01-15T01:15:38;101275.97;;;4.46;85.85
74542;BME280;63015;45.378;20.360;2023-01-15T01:17:38;101280.38;;;4.49;85.85
74542;BME280;63015;45.378;20.360;2023-01-15T01:19:39;101276.88;;;4.48;85.92
74542;BME280;63015;45.378;20.360;2023-01-15T01:21:42;101275.19;;;4.49;85.82
74542;BME280;63015;45.378;20.360;2023-01-15T01:23:43;101284.41;;;4.42;85.77
74542;BME280;63015;45.378;20.360;2023-01-15T01:25:43;101277.78;;;4.49;85.72
74542;BME280;63015;45.378;20.360;2023-01-15T01:27:44;101269.97;;;4.47;85.71
74542;BME280;63015;45.378;20.360;2023-01-15T01:29:45;101265.59;;;4.44;85.54
74542;BME280;63015;45.378;20.360;2023-01-15T01:31:46;101263.06;;;4.46;85.77
74542;BME280;63015;45.378;20.360;2023-01-15T01:33:48;101258.81;;;4.48;85.67
74542;BME280;63015;45.378;20.360;2023-01-15T01:35:49;101252.53;;;4.41;85.58
74542;BME280;63015;45.378;20.360;2023-01-15T01:37:50;101253.31;;;4.39;85.55
74542;BME280;63015;45.378;20.360;2023-01-15T01:39:51;101254.78;;;4.32;85.76
74542;BME280;63015;45.378;20.360;2023-01-15T01:41:52;101250.63;;;4.36;85.65
74542;BME280;63015;45.378;20.360;2023-01-15T01:45:57;101255.78;;;4.36;85.57
74542;BME280;63015;45.378;20.360;2023-01-15T01:48:02;101244.41;;;4.31;85.48
74542;BME280;63015;45.378;20.360;2023-01-15T01:50:09;101242.75;;;4.33;85.78
74542;BME280;63015;45.378;20.360;2023-01-15T01:52:17;101240.34;;;4.37;85.64
74542;BME280;63015;45.378;20.360;2023-01-15T01:54:22;101237.59;;;4.33;85.58
74542;BME280;63015;45.378;20.360;2023-01-15T01:56:24;101237.44;;;4.28;85.78
74542;BME280;63015;45.378;20.360;2023-01-15T01:58:28;101238.66;;;4.38;85.73
74542;BME280;63015;45.378;20.360;2023-01-15T02:00:31;101238.00;;;4.43;85.54
74542;BME280;63015;45.378;20.360;2023-01-15T02:02:34;101237.97;;;4.42;85.60
74542;BME280;63015;45.378;20.360;2023-01-15T02:04:35;101233.91;;;4.49;85.38
74542;BME280;63015;45.378;20.360;2023-01-15T02:06:38;101238.00;;;4.43;85.38
74542;BME280;63015;45.378;20.360;2023-01-15T02:08:42;101233.00;;;4.48;85.39
74542;BME280;63015;45.378;20.360;2023-01-15T02:10:44;101230.50;;;4.50;85.41
74542;BME280;63015;45.378;20.360;2023-01-15T02:13:01;101231.59;;;4.56;85.35
74542;BME280;63015;45.378;20.360;2023-01-15T02:15:21;101233.66;;;4.65;85.05
74542;BME280;63015;45.378;20.360;2023-01-15T02:17:37;101226.00;;;4.68;84.94
74542;BME280;63015;45.378;20.360;2023-01-15T02:27:14;101218.19;;;4.67;85.00
74542;BME280;63015;45.378;20.360;2023-01-15T02:29:20;101209.84;;;4.74;84.80
74542;BME280;63015;45.378;20.360;2023-01-15T02:31:36;101215.06;;;4.75;84.59
74542;BME280;63015;45.378;20.360;2023-01-15T02:33:41;101207.34;;;4.75;84.50
74542;BME280;63015;45.378;20.360;2023-01-15T02:35:53;101211.78;;;4.80;84.55
74542;BME280;63015;45.378;20.360;2023-01-15T02:38:00;101214.56;;;4.86;84.40
74542;BME280;63015;45.378;20.360;2023-01-15T02:40:05;101209.59;;;4.92;84.32
74542;BME280;63015;45.378;20.360;2023-01-15T02:42:08;101202.88;;;4.97;84.17
74542;BME280;63015;45.378;20.360;2023-01-15T02:44:19;101200.66;;;5.06;83.94
74542;BME280;63015;45.378;20.360;2023-01-15T02:46:26;101193.03;;;5.11;83.86
74542;BME280;63015;45.378;20.360;2023-01-15T02:48:29;101187.97;;;5.14;83.63
74542;BME280;63015;45.378;20.360;2023-01-15T02:50:36;101191.22;;;5.08;83.43
74542;BME280;63015;45.378;20.360;2023-01-15T02:52:44;101190.41;;;5.09;83.44
74542;BME280;63015;45.378;20.360;2023-01-15T02:54:55;101178.25;;;5.07;83.41
74542;BME280;63015;45.378;20.360;2023-01-15T02:56:58;101186.78;;;5.04;83.43
74542;BME280;63015;45.378;20.360;2023-01-15T02:59:05;101180.50;;;4.96;83.50
74542;BME280;63015;45.378;20.360;2023-01-15T03:01:16;101177.69;;;4.90;83.70
74542;BME280;63015;45.378;20.360;2023-01-15T03:03:25;101169.81;;;4.87;83.51
74542;BME280;63015;45.378;20.360;2023-01-15T03:05:37;101174.88;;;4.84;83.65
74542;BME280;63015;45.378;20.360;2023-01-15T03:07:44;101169.72;;;4.84;83.59
74542;BME280;63015;45.378;20.360;2023-01-15T03:09:47;101174.06;;;4.85;83.65
74542;BME280;63015;45.378;20.360;2023-01-15T03:12:05;101157.69;;;4.84;83.19
74542;BME280;63015;45.378;20.360;2023-01-15T03:14:22;101163.84;;;4.88;83.46
74542;BME280;63015;45.378;20.360;2023-01-15T03:16:37;101168.09;;;4.86;83.46
74542;BME280;63015;45.378;20.360;2023-01-15T03:18:52;101164.50;;;4.82;83.57
74542;BME280;63015;45.378;20.360;2023-01-15T03:20:56;101156.56;;;4.76;83.77
74542;BME280;63015;45.378;20.360;2023-01-15T03:22:58;101167.16;;;4.84;83.45
74542;BME280;63015;45.378;20.360;2023-01-15T03:25:15;101153.38;;;4.83;83.48
74542;BME280;63015;45.378;20.360;2023-01-15T03:27:22;101154.06;;;4.79;83.89
74542;BME280;63015;45.378;20.360;2023-01-15T03:29:32;101164.28;;;4.76;83.75
74542;BME280;63015;45.378;20.360;2023-01-15T03:31:34;101169.97;;;4.66;84.17
74542;BME280;63015;45.378;20.360;2023-01-15T03:33:35;101165.63;;;4.65;84.53
74542;BME280;63015;45.378;20.360;2023-01-15T03:35:55;101160.41;;;4.63;84.40
74542;BME280;63015;45.378;20.360;2023-01-15T03:38:34;101155.19;;;4.61;84.45
74542;BME280;63015;45.378;20.360;2023-01-15T03:40:41;101155.97;;;4.59;84.45
74542;BME280;63015;45.378;20.360;2023-01-15T03:42:53;101161.72;;;4.52;84.58
74542;BME280;63015;45.378;20.360;2023-01-15T03:45:31;101151.53;;;4.55;84.52
74542;BME280;63015;45.378;20.360;2023-01-15T03:54:34;101151.84;;;4.40;84.94
74542;BME280;63015;45.378;20.360;2023-01-15T03:56:48;101151.75;;;4.37;84.76
74542;BME280;63015;45.378;20.360;2023-01-15T03:59:01;101142.78;;;4.27;84.97
74542;BME280;63015;45.378;20.360;2023-01-15T04:01:26;101136.03;;;4.31;84.64
74542;BME280;63015;45.378;20.360;2023-01-15T04:03:33;101138.44;;;4.26;84.69
74542;BME280;63015;45.378;20.360;2023-01-15T04:05:36;101131.59;;;4.26;84.62
74542;BME280;63015;45.378;20.360;2023-01-15T04:07:38;101123.72;;;4.23;84.64
74542;BME280;63015;45.378;20.360;2023-01-15T04:09:39;101122.59;;;4.15;84.86
74542;BME280;63015;45.378;20.360;2023-01-15T04:11:43;101124.22;;;4.13;84.84
74542;BME280;63015;45.378;20.360;2023-01-15T04:13:43;101129.22;;;4.08;84.86
74542;BME280;63015;45.378;20.360;2023-01-15T04:15:57;101119.53;;;4.03;85.36
74542;BME280;63015;45.378;20.360;2023-01-15T04:17:59;101117.16;;;4.07;85.30
74542;BME280;63015;45.378;20.360;2023-01-15T04:20:03;101124.06;;;4.08;85.31
74542;BME280;63015;45.378;20.360;2023-01-15T04:22:04;101125.94;;;4.13;85.33
74542;BME280;63015;45.378;20.360;2023-01-15T04:24:05;101119.53;;;4.03;85.22
74542;BME280;63015;45.378;20.360;2023-01-15T04:26:06;101128.56;;;4.14;85.25
74542;BME280;63015;45.378;20.360;2023-01-15T04:28:07;101113.84;;;4.11;85.27
74542;BME280;63015;45.378;20.360;2023-01-15T04:30:08;101119.19;;;4.16;85.33
74542;BME280;63015;45.378;20.360;2023-01-15T04:32:09;101119.06;;;4.13;85.33
74542;BME280;63015;45.378;20.360;2023-01-15T04:34:09;101119.25;;;4.18;85.11
74542;BME280;63015;45.378;20.360;2023-01-15T04:36:10;101112.38;;;4.18;85.05
74542;BME280;63015;45.378;20.360;2023-01-15T04:38:10;101117.38;;;4.14;85.11
74542;BME280;63015;45.378;20.360;2023-01-15T04:40:11;101107.75;;;4.09;85.13
74542;BME280;63015;45.378;20.360;2023-01-15T04:42:30;101110.13;;;4.03;85.16
74542;BME280;63015;45.378;20.360;2023-01-15T04:44:50;101113.38;;;3.99;85.28
74542;BME280;63015;45.378;20.360;2023-01-15T04:46:52;101103.97;;;4.00;85.20
74542;BME280;63015;45.378;20.360;2023-01-15T04:48:52;101109.88;;;3.97;85.34
74542;BME280;63015;45.378;20.360;2023-01-15T04:50:53;101109.00;;;3.97;85.31
74542;BME280;63015;45.378;20.360;2023-01-15T04:52:54;101105.66;;;3.99;85.33
74542;BME280;63015;45.378;20.360;2023-01-15T04:54:54;101113.47;;;4.01;85.12
74542;BME280;63015;45.378;20.360;2023-01-15T04:56:55;101111.56;;;3.97;85.21
74542;BME280;63015;45.378;20.360;2023-01-15T04:58:59;101113.06;;;3.90;85.31
74542;BME280;63015;45.378;20.360;2023-01-15T05:01:00;101113.19;;;3.93;85.24
74542;BME280;63015;45.378;20.360;2023-01-15T05:03:01;101109.84;;;3.95;85.24
74542;BME280;63015;45.378;20.360;2023-01-15T05:05:01;101112.34;;;3.94;85.50
74542;BME280;63015;45.378;20.360;2023-01-15T05:07:03;101117.44;;;3.92;85.17
74542;BME280;63015;45.378;20.360;2023-01-15T05:09:04;101118.34;;;3.93;85.10
74542;BME280;63015;45.378;20.360;2023-01-15T05:11:06;101113.09;;;3.91;84.99
74542;BME280;63015;45.378;20.360;2023-01-15T05:13:06;101114.63;;;3.86;85.14
74542;BME280;63015;45.378;20.360;2023-01-15T05:15:07;101107.84;;;3.88;84.93
74542;BME280;63015;45.378;20.360;2023-01-15T05:17:08;101104.31;;;3.86;85.10
74542;BME280;63015;45.378;20.360;2023-01-15T05:19:09;101092.31;;;3.87;85.28
74542;BME280;63015;45.378;20.360;2023-01-15T05:23:17;101099.16;;;3.86;85.06
74542;BME280;63015;45.378;20.360;2023-01-15T05:25:18;101111.72;;;3.77;85.21
74542;BME280;63015;45.378;20.360;2023-01-15T05:27:18;101100.63;;;3.79;85.20
74542;BME280;63015;45.378;20.360;2023-01-15T05:29:19;101100.41;;;3.73;85.31
74542;BME280;63015;45.378;20.360;2023-01-15T05:31:20;101099.59;;;3.74;85.13
74542;BME280;63015;45.378;20.360;2023-01-15T05:33:21;101092.09;;;3.81;85.05
74542;BME280;63015;45.378;20.360;2023-01-15T05:35:21;101087.03;;;3.84;84.92
74542;BME280;63015;45.378;20.360;2023-01-15T05:37:22;101082.53;;;3.78;84.75
74542;BME280;63015;45.378;20.360;2023-01-15T05:39:22;101085.63;;;3.69;84.76
74542;BME280;63015;45.378;20.360;2023-01-15T05:41:23;101083.72;;;3.64;84.59
74542;BME280;63015;45.378;20.360;2023-01-15T05:43:42;101078.66;;;3.67;84.54
74542;BME280;63015;45.378;20.360;2023-01-15T05:45:42;101070.84;;;3.64;84.45
74542;BME280;63015;45.378;20.360;2023-01-15T05:47:43;101076.56;;;3.56;84.29
74542;BME280;63015;45.378;20.360;2023-01-15T05:49:44;101080.25;;;3.40;84.22
74542;BME280;63015;45.378;20.360;2023-01-15T05:51:45;101079.06;;;3.32;84.13
74542;BME280;63015;45.378;20.360;2023-01-15T05:53:46;101072.44;;;3.16;84.31
74542;BME280;63015;45.378;20.360;2023-01-15T05:55:46;101073.50;;;3.21;84.09
74542;BME280;63015;45.378;20.360;2023-01-15T05:57:47;101068.00;;;3.12;84.21
74542;BME280;63015;45.378;20.360;2023-01-15T05:59:48;101065.97;;;3.05;84.24
74542;BME280;63015;45.378;20.360;2023-01-15T06:01:50;101063.56;;;3.08;84.18
74542;BME280;63015;45.378;20.360;2023-01-15T06:03:51;101060.06;;;3.07;84.38
74542;BME280;63015;45.378;20.360;2023-01-15T06:05:55;101058.31;;;3.06;84.28
74542;BME280;63015;45.378;20.360;2023-01-15T06:07:55;101065.16;;;3.06;84.15
74542;BME280;63015;45.378;20.360;2023-01-15T06:09:56;101062.28;;;2.98;84.17
74542;BME280;63015;45.378;20.360;2023-01-15T06:11:56;101062.22;;;2.96;84.16
74542;BME280;63015;45.378;20.360;2023-01-15T06:13:57;101057.91;;;2.95;83.90
74542;BME280;63015;45.378;20.360;2023-01-15T06:15:59;101065.19;;;2.85;84.11
74542;BME280;63015;45.378;20.360;2023-01-15T06:17:59;101059.78;;;2.78;84.03
74542;BME280;63015;45.378;20.360;2023-01-15T06:20:00;101057.16;;;2.77;83.99
74542;BME280;63015;45.378;20.360;2023-01-15T06:22:00;101059.75;;;2.77;84.07
74542;BME280;63015;45.378;20.360;2023-01-15T06:24:03;101048.22;;;2.69;83.95
74542;BME280;63015;45.378;20.360;2023-01-15T06:26:06;101060.16;;;2.67;84.16
74542;BME280;63015;45.378;20.360;2023-01-15T06:28:07;101049.13;;;2.69;84.40
74542;BME280;63015;45.378;20.360;2023-01-15T06:30:08;101051.59;;;2.68;84.25
74542;BME280;63015;45.378;20.360;2023-01-15T06:32:09;101045.59;;;2.67;84.19
74542;BME280;63015;45.378;20.360;2023-01-15T06:34:09;101049.13;;;2.69;84.36
74542;BME280;63015;45.378;20.360;2023-01-15T06:36:16;101045.53;;;2.66;84.26
74542;BME280;63015;45.378;20.360;2023-01-15T06:38:17;101048.22;;;2.69;84.30
74542;BME280;63015;45.378;20.360;2023-01-15T06:40:18;101048.28;;;2.70;84.44
74542;BME280;63015;45.378;20.360;2023-01-15T06:42:19;101038.69;;;2.66;84.54
74542;BME280;63015;45.378;20.360;2023-01-15T06:44:38;101049.88;;;2.67;84.92
74542;BME280;63015;45.378;20.360;2023-01-15T06:46:57;101044.03;;;2.71;84.82
74542;BME280;63015;45.378;20.360;2023-01-15T06:49:16;101044.84;;;2.70;85.09
74542;BME280;63015;45.378;20.360;2023-01-15T06:51:17;101040.75;;;2.75;85.10
74542;BME280;63015;45.378;20.360;2023-01-15T06:53:20;101032.03;;;2.71;85.25
74542;BME280;63015;45.378;20.360;2023-01-15T06:55:21;101035.16;;;2.85;85.04
74542;BME280;63015;45.378;20.360;2023-01-15T06:57:23;101025.63;;;2.83;85.00
74542;BME280;63015;45.378;20.360;2023-01-15T06:59:23;101032.72;;;2.88;85.05
74542;BME280;63015;45.378;20.360;2023-01-15T07:01:24;101027.81;;;2.94;84.75
74542;BME280;63015;45.378;20.360;2023-01-15T07:03:29;101022.56;;;2.91;84.84
74542;BME280;63015;45.378;20.360;2023-01-15T07:05:30;101033.00;;;2.96;84.65
74542;BME280;63015;45.378;20.360;2023-01-15T07:07:31;101019.91;;;2.90;84.81
74542;BME280;63015;45.378;20.360;2023-01-15T07:09:31;101023.63;;;2.96;84.89
74542;BME280;63015;45.378;20.360;2023-01-15T07:11:32;101026.69;;;2.88;84.97
74542;BME280;63015;45.378;20.360;2023-01-15T07:13:33;101026.75;;;2.89;85.39
74542;BME280;63015;45.378;20.360;2023-01-15T07:15:34;101028.00;;;2.99;85.07
74542;BME280;63015;45.378;20.360;2023-01-15T07:17:36;101032.91;;;2.93;85.09
74542;BME280;63015;45.378;20.360;2023-01-15T07:19:37;101032.91;;;2.93;85.14
74542;BME280;63015;45.378;20.360;2023-01-15T07:21:38;101039.88;;;2.95;85.13
74542;BME280;63015;45.378;20.360;2023-01-15T07:23:38;101031.38;;;2.98;84.93
74542;BME280;63015;45.378;20.360;2023-01-15T07:25:39;101031.50;;;3.01;85.13
74542;BME280;63015;45.378;20.360;2023-01-15T07:27:39;101035.22;;;3.08;84.77
74542;BME280;63015;45.378;20.360;2023-01-15T07:29:40;101036.50;;;3.19;84.70
74542;BME280;63015;45.378;20.360;2023-01-15T07:31:40;101039.81;;;3.17;84.59
74542;BME280;63015;45.378;20.360;2023-01-15T07:33:41;101023.75;;;3.22;84.78
74542;BME280;63015;45.378;20.360;2023-01-15T07:35:41;101028.25;;;3.28;84.52
74542;BME280;63015;45.378;20.360;2023-01-15T07:37:42;101024.09;;;3.32;84.55
74542;BME280;63015;45.378;20.360;2023-01-15T07:39:43;101026.88;;;3.36;84.32
74542;BME280;63015;45.378;20.360;2023-01-15T07:41:43;101025.97;;;3.36;84.43
74542;BME280;63015;45.378;20.360;2023-01-15T07:44:11;101022.06;;;3.45;84.51
74542;BME280;63015;45.378;20.360;2023-01-15T07:46:30;101025.44;;;3.44;84.44
74542;BME280;63015;45.378;20.360;2023-01-15T07:48:49;101016.94;;;3.47;84.27
74542;BME280;63015;45.378;20.360;2023-01-15T07:51:08;101016.41;;;3.56;84.43
74542;BME280;63015;45.378;20.360;2023-01-15T07:53:09;101016.56;;;3.60;84.49
74542;BME280;63015;45.378;20.360;2023-01-15T07:55:10;101008.06;;;3.63;84.46
74542;BME280;63015;45.378;20.360;2023-01-15T07:57:21;101009.22;;;3.70;84.36
74542;BME280;63015;45.378;20.360;2023-01-15T07:59:22;101002.34;;;3.70;84.38
74542;BME280;63015;45.378;20.360;2023-01-15T08:01:24;101007.59;;;3.73;84.35
74542;BME280;63015;45.378;20.360;2023-01-15T08:03:24;101004.97;;;3.72;84.74
74542;BME280;63015;45.378;20.360;2023-01-15T08:05:25;100999.97;;;3.76;85.05
74542;BME280;63015;45.378;20.360;2023-01-15T08:07:25;100989.06;;;3.84;85.17
74542;BME280;63015;45.378;20.360;2023-01-15T08:09:26;100998.88;;;3.94;84.74
74542;BME280;63015;45.378;20.360;2023-01-15T08:11:27;100991.25;;;3.97;85.07
74542;BME280;63015;45.378;20.360;2023-01-15T08:13:47;100999.13;;;4.02;84.86
74542;BME280;63015;45.378;20.360;2023-01-15T08:16:06;100990.06;;;4.13;84.62
74542;BME280;63015;45.378;20.360;2023-01-15T08:18:07;100992.31;;;4.28;84.43
74542;BME280;63015;45.378;20.360;2023-01-15T08:20:13;100993.44;;;4.36;84.31
74542;BME280;63015;45.378;20.360;2023-01-15T08:22:15;100998.56;;;4.35;84.00
74542;BME280;63015;45.378;20.360;2023-01-15T08:24:16;100997.69;;;4.34;84.13
74542;BME280;63015;45.378;20.360;2023-01-15T08:26:16;100990.81;;;4.35;83.89
74542;BME280;63015;45.378;20.360;2023-01-15T08:28:17;100990.03;;;4.37;83.80
74542;BME280;63015;45.378;20.360;2023-01-15T08:30:20;100982.72;;;4.24;83.76
74542;BME280;63015;45.378;20.360;2023-01-15T08:32:22;100988.53;;;4.18;83.97
74542;BME280;63015;45.378;20.360;2023-01-15T08:34:23;100985.84;;;4.15;84.08
74542;BME280;63015;45.378;20.360;2023-01-15T08:36:23;100982.22;;;4.34;84.11
74542;BME280;63015;45.378;20.360;2023-01-15T08:38:24;100982.50;;;4.43;84.03
74542;BME280;63015;45.378;20.360;2023-01-15T08:40:24;100983.63;;;4.52;84.19
74542;BME280;63015;45.378;20.360;2023-01-15T08:42:25;100974.13;;;4.51;83.68
74542;BME280;63015;45.378;20.360;2023-01-15T08:44:25;100969.22;;;4.58;83.40
74542;BME280;63015;45.378;20.360;2023-01-15T08:46:26;100979.44;;;4.55;83.75
74542;BME280;63015;45.378;20.360;2023-01-15T08:48:28;100979.78;;;4.66;83.58
74542;BME280;63015;45.378;20.360;2023-01-15T08:50:28;100977.28;;;4.68;83.41
74542;BME280;63015;45.378;20.360;2023-01-15T08:52:29;100982.06;;;4.57;82.90
74542;BME280;63015;45.378;20.360;2023-01-15T08:54:30;100976.28;;;4.64;82.54
74542;BME280;63015;45.378;20.360;2023-01-15T08:56:30;100978.06;;;4.65;82.71
74542;BME280;63015;45.378;20.360;2023-01-15T08:58:31;100967.06;;;4.72;82.67
74542;BME280;63015;45.378;20.360;2023-01-15T09:00:32;100971.41;;;4.73;82.41
74542;BME280;63015;45.378;20.360;2023-01-15T09:02:33;100964.72;;;4.80;82.34
74542;BME280;63015;45.378;20.360;2023-01-15T09:04:33;100970.31;;;4.94;82.33
74542;BME280;63015;45.378;20.360;2023-01-15T09:06:34;100967.16;;;5.03;82.04
74542;BME280;63015;45.378;20.360;2023-01-15T09:08:34;100964.13;;;5.18;81.83
74542;BME280;63015;45.378;20.360;2023-01-15T09:10:35;100961.94;;;5.30;81.43
74542;BME280;63015;45.378;20.360;2023-01-15T09:12:35;100959.53;;;5.36;81.12
74542;BME280;63015;45.378;20.360;2023-01-15T09:14:36;100957.69;;;5.32;80.93
74542;BME280;63015;45.378;20.360;2023-01-15T09:16:37;100952.00;;;5.44;80.80
74542;BME280;63015;45.378;20.360;2023-01-15T09:18:38;100942.06;;;5.58;80.29
74542;BME280;63015;45.378;20.360;2023-01-15T09:20:38;100941.47;;;5.68;80.23
74542;BME280;63015;45.378;20.360;2023-01-15T09:22:39;100934.91;;;5.81;79.76
74542;BME280;63015;45.378;20.360;2023-01-15T09:24:39;100921.09;;;5.81;79.52
74542;BME280;63015;45.378;20.360;2023-01-15T09:26:40;100923.00;;;5.88;79.49
74542;BME280;63015;45.378;20.360;2023-01-15T09:28:40;100923.47;;;6.05;79.45
74542;BME280;63015;45.378;20.360;2023-01-15T09:30:41;100915.56;;;5.99;78.87
74542;BME280;63015;45.378;20.360;2023-01-15T09:32:41;100910.66;;;6.09;78.95
74542;BME280;63015;45.378;20.360;2023-01-15T09:34:42;100899.69;;;6.18;78.52
74542;BME280;63015;45.378;20.360;2023-01-15T09:36:42;100893.56;;;6.16;78.21
74542;BME280;63015;45.378;20.360;2023-01-15T09:38:44;100885.16;;;6.25;78.04
74542;BME280;63015;45.378;20.360;2023-01-15T09:40:53;100896.56;;;6.33;78.04
74542;BME280;63015;45.378;20.360;2023-01-15T09:43:02;100878.66;;;6.42;76.93
74542;BME280;63015;45.378;20.360;2023-01-15T09:47:38;100878.53;;;6.76;76.84
74542;BME280;63015;45.378;20.360;2023-01-15T09:54:53;100858.41;;;7.02;75.06
74542;BME280;63015;45.378;20.360;2023-01-15T09:56:56;100849.88;;;7.10;75.20
74542;BME280;63015;45.378;20.360;2023-01-15T09:58:58;100851.97;;;7.28;75.48
74542;BME280;63015;45.378;20.360;2023-01-15T10:01:03;100839.91;;;7.30;74.56
74542;BME280;63015;45.378;20.360;2023-01-15T10:05:26;100832.25;;;7.34;74.19
74542;BME280;63015;45.378;20.360;2023-01-15T10:07:36;100830.50;;;7.33;73.62
74542;BME280;63015;45.378;20.360;2023-01-15T10:09:41;100820.94;;;7.31;74.10
74542;BME280;63015;45.378;20.360;2023-01-15T10:11:45;100817.78;;;7.47;74.00
74542;BME280;63015;45.378;20.360;2023-01-15T10:14:10;100816.88;;;7.47;73.39
74542;BME280;63015;45.378;20.360;2023-01-15T10:16:20;100815.22;;;7.49;73.09
74542;BME280;63015;45.378;20.360;2023-01-15T10:18:23;100811.81;;;7.53;73.30
74542;BME280;63015;45.378;20.360;2023-01-15T10:24:57;100791.47;;;7.76;71.74
74542;BME280;63015;45.378;20.360;2023-01-15T10:27:14;100798.53;;;7.85;71.60
74542;BME280;63015;45.378;20.360;2023-01-15T10:29:48;100784.63;;;7.81;71.30
74542;BME280;63015;45.378;20.360;2023-01-15T10:31:55;100777.56;;;7.74;71.32
74542;BME280;63015;45.378;20.360;2023-01-15T10:36:41;100761.41;;;7.90;71.18
74542;BME280;63015;45.378;20.360;2023-01-15T10:45:18;100741.88;;;8.13;70.29
74542;BME280;63015;45.378;20.360;2023-01-15T10:47:25;100741.03;;;8.15;69.87
74542;BME280;63015;45.378;20.360;2023-01-15T10:49:29;100734.31;;;8.31;70.44
74542;BME280;63015;45.378;20.360;2023-01-15T10:51:43;100728.41;;;8.45;70.47
74542;BME280;63015;45.378;20.360;2023-01-15T10:53:54;100726.94;;;8.61;69.90
74542;BME280;63015;45.378;20.360;2023-01-15T10:56:09;100723.31;;;8.49;69.23
74542;BME280;63015;45.378;20.360;2023-01-15T10:58:28;100723.41;;;8.55;69.51
74542;BME280;63015;45.378;20.360;2023-01-15T11:00:32;100713.88;;;8.54;69.19
74542;BME280;63015;45.378;20.360;2023-01-15T11:02:41;100709.56;;;8.57;69.04
74542;BME280;63015;45.378;20.360;2023-01-15T11:04:42;100709.69;;;8.66;69.05
74542;BME280;63015;45.378;20.360;2023-01-15T11:06:43;100708.88;;;8.71;68.83
74542;BME280;63015;45.378;20.360;2023-01-15T11:08:48;100694.97;;;8.68;68.65
74542;BME280;63015;45.378;20.360;2023-01-15T11:10:49;100693.25;;;8.68;68.97
74542;BME280;63015;45.378;20.360;2023-01-15T11:12:55;100676.84;;;8.76;68.42
74542;BME280;63015;45.378;20.360;2023-01-15T11:15:21;100668.25;;;8.80;68.57
74542;BME280;63015;45.378;20.360;2023-01-15T11:17:44;100638.00;;;8.85;68.32
74542;BME280;63015;45.378;20.360;2023-01-15T11:20:16;100651.75;;;8.75;67.41
74542;BME280;63015;45.378;20.360;2023-01-15T11:22:21;100630.13;;;8.77;67.66
74542;BME280;63015;45.378;20.360;2023-01-15T11:24:22;100634.50;;;8.81;67.84
74542;BME280;63015;45.378;20.360;2023-01-15T11:26:28;100634.50;;;8.84;67.58
74542;BME280;63015;45.378;20.360;2023-01-15T11:28:40;100618.03;;;8.82;67.78
74542;BME280;63015;45.378;20.360;2023-01-15T11:30:42;100625.09;;;8.96;67.48
74542;BME280;63015;45.378;20.360;2023-01-15T11:32:57;100613.75;;;8.89;66.10